This is the latest recevied weather packets stored in our database for station/object IZ8NVY-10. If no packets are shown the sender has not sent any weather packets the latest 10 day(s).
| Time | Temp. | Humidity | Pressure | Rain* | Wind** | Luminosity | Snow |
|---|---|---|---|---|---|---|---|
| 1778048021 | 19.44° C | 55% | 978.5 hPa | - | - | - | - |
| 1778044422 | 17.22° C | 57% | 978.4 hPa | - | - | - | - |
| 1778040821 | 16.11° C | 58% | 977.9 hPa | - | - | - | - |
| 1778037222 | 16.11° C | 57% | 978 hPa | - | - | - | - |
| 1778033620 | 16.67° C | 58% | 978 hPa | - | - | - | - |
| 1778030019 | 16.11° C | 59% | 978.4 hPa | - | - | - | - |
| 1778026419 | 16.11° C | 57% | 978.8 hPa | - | - | - | - |
| 1778022822 | 15° C | 56% | 979.3 hPa | - | - | - | - |
| 1778019216 | 16.11° C | 54% | 979.6 hPa | - | - | - | - |
| 1778015619 | 17.78° C | 51% | 979.8 hPa | - | - | - | - |
| 1778012019 | 17.78° C | 47% | 979.9 hPa | - | - | - | - |
| 1778008418 | 18.33° C | 47% | 979.7 hPa | - | - | - | - |
| 1778004817 | 18.89° C | 44% | 979.4 hPa | - | - | - | - |
| 1778001217 | 20.56° C | 41% | 979.3 hPa | - | - | - | - |
| 1777997617 | 21.11° C | 39% | 979.5 hPa | - | - | - | - |
| 1777994018 | 22.78° C | 36% | 979.9 hPa | - | - | - | - |
| 1777990418 | 25.56° C | 33% | 980.1 hPa | - | - | - | - |
| 1777986817 | 25.56° C | 34% | 980.2 hPa | - | - | - | - |
| 1777983216 | 25° C | 35% | 980.7 hPa | - | - | - | - |
| 1777979615 | 26.11° C | 34% | 981 hPa | - | - | - | - |
| 1777976014 | 23.89° C | 43% | 981.1 hPa | - | - | - | - |
| 1777972417 | 23.33° C | 44% | 981.1 hPa | - | - | - | - |
| 1777968814 | 22.22° C | 50% | 981.2 hPa | - | - | - | - |
| 1777965214 | 20.56° C | 52% | 981.2 hPa | - | - | - | - |
| 1777961612 | 18.89° C | 56% | 981.1 hPa | - | - | - | - |
* Rain since midnight (hover to see other rain measurements)
** Current wind speed in m/s (hover to see current wind gust speed)